Time;durP1;ratioP1;P1;durP2;ratioP2;P2;SDS_P1;SDS_P2;PMS_P1;PMS_P2;Temp;Humidity;BMP_temperature;BMP_pressure;BME280_temperature;BME280_humidity;BME280_pressure;Samples;Min_cycle;Max_cycle;Signal;HPM_P1;HPM_P2
2022/03/25 00:00:03;;;;;;;67.90;46.55;;;;;;;3.23;93.89;102875.47;5047321;28;20177;-40
2022/03/25 00:02:39;;;;;;;68.57;46.78;;;;;;;3.27;93.18;102864.97;5049873;28;20174;-41
2022/03/25 00:05:05;;;;;;;63.92;43.80;;;;;;;3.21;92.90;102870.13;5050163;28;20677;-40
2022/03/25 00:07:32;;;;;;;63.05;43.50;;;;;;;3.20;92.85;102862.16;5051781;28;20174;-43
2022/03/25 00:09:58;;;;;;;65.22;45.83;;;;;;;3.05;93.26;102873.25;5049724;28;20688;-40
2022/03/25 00:12:24;;;;;;;70.32;47.40;;;;;;;3.05;93.30;102873.25;5049124;28;20658;-39
2022/03/25 00:14:49;;;;;;;66.68;45.25;;;;;;;3.11;92.57;102870.75;5050262;28;20214;-38
2022/03/25 00:17:15;;;;;;;65.25;45.08;;;;;;;2.76;92.72;102876.03;5050014;28;20472;-39
2022/03/25 00:19:40;;;;;;;65.38;44.70;;;;;;;2.69;93.68;102876.72;5050425;28;20537;-39
2022/03/25 00:22:05;;;;;;;68.13;46.70;;;;;;;2.80;93.88;102874.34;5049987;28;20167;-39
2022/03/25 00:24:31;;;;;;;74.60;48.15;;;;;;;2.81;94.00;102882.34;5049778;28;20355;-39
2022/03/25 00:26:56;;;;;;;69.18;46.03;;;;;;;2.76;93.95;102876.03;5049943;28;20566;-39
2022/03/25 00:29:22;;;;;;;64.07;46.05;;;;;;;2.67;93.97;102879.31;5051922;28;20182;-39
2022/03/25 00:31:47;;;;;;;70.78;48.88;;;;;;;2.62;94.67;102866.81;5052629;28;20179;-40
2022/03/25 00:34:12;;;;;;;69.22;45.65;;;;;;;2.72;95.07;102881.19;5052030;28;20210;-39
2022/03/25 00:36:38;;;;;;;71.03;45.97;;;;;;;2.68;94.91;102875.81;5054016;28;20179;-40
2022/03/25 00:39:04;;;;;;;69.50;46.00;;;;;;;2.79;95.12;102876.09;5053860;28;20156;-38
2022/03/25 00:41:31;;;;;;;68.93;47.33;;;;;;;2.60;94.70;102860.56;5059435;22;20242;-46
2022/03/25 00:43:57;;;;;;;68.05;45.50;;;;;;;2.53;94.79;102871.84;5031882;28;20278;-42
2022/03/25 00:46:22;;;;;;;76.50;46.90;;;;;;;2.61;95.46;102872.97;5031655;28;20188;-44
2022/03/25 00:48:47;;;;;;;68.38;46.05;;;;;;;2.56;94.92;102882.50;5028698;28;20215;-42
2022/03/25 00:51:13;;;;;;;72.85;46.83;;;;;;;2.50;95.30;102874.44;5032103;28;20207;-43
2022/03/25 00:53:38;;;;;;;68.68;46.80;;;;;;;2.54;95.25;102887.78;5032592;28;20172;-44
2022/03/25 00:56:04;;;;;;;66.18;44.72;;;;;;;2.48;94.95;102892.91;5032541;28;20188;-43
2022/03/25 00:58:30;;;;;;;66.95;44.30;;;;;;;2.46;95.46;102887.56;5034168;28;20564;-43
2022/03/25 01:00:57;;;;;;;66.13;45.60;;;;;;;2.54;95.19;102881.59;5032353;28;20196;-44
2022/03/25 01:03:22;;;;;;;64.15;43.95;;;;;;;2.34;94.96;102881.94;5032931;28;20199;-43
2022/03/25 01:05:49;;;;;;;67.47;44.13;;;;;;;2.35;95.65;102882.81;5014107;28;20188;-44
2022/03/25 01:08:15;;;;;;;72.65;45.38;;;;;;;2.28;95.97;102873.81;5014261;28;20181;-43
2022/03/25 01:10:41;;;;;;;70.78;45.17;;;;;;;2.12;96.43;102874.19;5013734;28;20189;-44
2022/03/25 01:13:07;;;;;;;65.88;45.33;;;;;;;2.21;96.60;102877.13;5013375;28;20648;-44
2022/03/25 01:15:34;;;;;;;68.82;45.35;;;;;;;2.26;96.51;102870.22;5013554;28;20223;-46
2022/03/25 01:18:00;;;;;;;70.80;46.80;;;;;;;2.31;96.45;102878.28;5013673;28;20164;-43
2022/03/25 01:20:26;;;;;;;67.93;44.03;;;;;;;2.34;96.34;102868.69;5013717;28;20169;-42
2022/03/25 01:22:51;;;;;;;63.13;44.65;;;;;;;2.30;96.22;102872.09;5011538;28;20185;-45
2022/03/25 01:25:17;;;;;;;62.40;44.08;;;;;;;2.28;96.17;102867.63;5013570;28;20228;-43
2022/03/25 01:27:44;;;;;;;63.28;42.97;;;;;;;2.21;95.70;102864.81;5012377;28;20311;-42
2022/03/25 01:30:10;;;;;;;66.15;44.67;;;;;;;2.13;96.00;102873.38;5013625;28;20554;-43
2022/03/25 01:32:36;;;;;;;67.63;44.15;;;;;;;2.06;96.33;102867.88;5013151;28;20200;-45
2022/03/25 01:35:01;;;;;;;70.57;45.30;;;;;;;2.01;96.67;102865.94;5013176;28;20294;-44
2022/03/25 01:37:29;;;;;;;69.90;44.17;;;;;;;1.99;97.14;102865.91;5013625;28;20169;-45
2022/03/25 01:39:55;;;;;;;68.90;44.72;;;;;;;2.02;97.47;102873.03;5011811;28;20255;-43
2022/03/25 01:42:32;;;;;;;66.00;44.25;;;;;;;2.05;97.68;102855.50;5010568;28;20176;-42
2022/03/25 01:44:58;;;;;;;65.22;43.92;;;;;;;2.11;97.54;102864.50;5011686;28;20709;-44
2022/03/25 01:47:28;;;;;;;68.15;44.42;;;;;;;2.08;97.53;102865.31;5013158;28;20181;-44
2022/03/25 01:49:55;;;;;;;69.30;45.25;;;;;;;2.13;97.71;102865.44;5012176;28;20176;-42
2022/03/25 01:52:20;;;;;;;65.55;44.53;;;;;;;2.19;97.61;102862.97;5012705;28;20260;-44
2022/03/25 01:54:46;;;;;;;70.57;44.90;;;;;;;2.15;97.19;102858.44;5012803;28;20346;-46
2022/03/25 01:57:12;;;;;;;70.47;46.30;;;;;;;2.08;96.91;102859.09;5013238;28;20187;-44
2022/03/25 01:59:38;;;;;;;75.38;45.67;;;;;;;2.02;97.21;102865.09;5011473;28;20274;-46
2022/03/25 02:02:06;;;;;;;69.28;44.67;;;;;;;1.98;97.04;102863.22;5012866;28;20311;-43
2022/03/25 02:04:33;;;;;;;68.85;43.80;;;;;;;2.04;96.86;102856.38;5011209;28;20222;-45
2022/03/25 02:06:59;;;;;;;69.18;45.10;;;;;;;1.91;96.92;102850.69;4995287;28;20180;-44
2022/03/25 02:09:25;;;;;;;70.63;46.03;;;;;;;1.94;97.46;102848.13;5011627;28;20173;-44
2022/03/25 02:11:53;;;;;;;66.15;44.25;;;;;;;1.98;97.43;102855.28;5011045;28;20617;-44
2022/03/25 02:14:19;;;;;;;68.75;43.78;;;;;;;1.96;97.40;102852.59;5011414;28;20192;-46
2022/03/25 02:16:46;;;;;;;67.00;43.80;;;;;;;1.98;97.37;102853.53;5017280;28;20522;-44
2022/03/25 02:19:13;;;;;;;69.55;43.63;;;;;;;1.97;96.88;102853.50;5023760;28;20245;-42
2022/03/25 02:21:41;;;;;;;66.38;44.50;;;;;;;1.74;97.21;102853.69;5032286;28;20172;-45
2022/03/25 02:24:09;;;;;;;70.72;45.40;;;;;;;1.81;97.41;102860.94;5030710;28;20198;-44
2022/03/25 02:26:36;;;;;;;66.95;43.38;;;;;;;1.80;98.02;102858.28;5031070;28;20203;-46
2022/03/25 02:29:08;;;;;;;71.32;44.58;;;;;;;1.66;97.80;102863.13;5031105;28;20172;-43
2022/03/25 02:31:33;;;;;;;66.45;46.08;;;;;;;1.64;98.01;102847.25;5030247;28;20259;-44
2022/03/25 02:34:05;;;;;;;76.63;47.22;;;;;;;1.58;98.79;102841.75;5030518;28;20282;-45
2022/03/25 02:36:38;;;;;;;73.85;45.38;;;;;;;1.65;98.88;102845.50;5029948;28;20299;-45
2022/03/25 02:39:09;;;;;;;75.47;46.50;;;;;;;1.74;99.01;102842.22;5031081;28;20559;-44
2022/03/25 02:41:35;;;;;;;71.15;45.70;;;;;;;1.72;98.67;102842.19;5030383;28;20282;-46
2022/03/25 02:44:01;;;;;;;70.70;44.83;;;;;;;1.69;98.42;102844.75;5030677;28;20279;-43
2022/03/25 02:46:27;;;;;;;69.57;44.58;;;;;;;1.80;98.54;102845.06;5030543;28;20634;-43
2022/03/25 02:48:53;;;;;;;67.22;45.63;;;;;;;1.77;98.43;102835.31;5030023;28;20271;-43
2022/03/25 02:51:19;;;;;;;70.13;46.58;;;;;;;1.72;97.86;102850.09;5032119;28;20174;-43
2022/03/25 02:53:44;;;;;;;70.65;45.40;;;;;;;1.76;97.56;102846.72;5031377;28;20251;-42
2022/03/25 02:56:10;;;;;;;70.32;46.15;;;;;;;1.72;97.46;102841.28;5030548;28;20204;-45
2022/03/25 02:58:35;;;;;;;67.60;44.90;;;;;;;1.68;97.67;102847.31;5031402;28;20182;-44
2022/03/25 03:01:01;;;;;;;70.10;45.60;;;;;;;1.69;97.27;102855.31;5031251;28;20190;-42
2022/03/25 03:03:26;;;;;;;71.70;46.83;;;;;;;1.66;97.24;102841.97;5030752;28;20182;-42
2022/03/25 03:05:53;;;;;;;67.13;44.28;;;;;;;1.69;97.25;102833.28;5011714;28;20188;-47
2022/03/25 03:08:19;;;;;;;67.70;43.10;;;;;;;1.72;97.31;102841.28;5010291;28;20670;-43
2022/03/25 03:10:44;;;;;;;75.28;46.28;;;;;;;1.61;97.07;102846.25;5011746;28;20169;-43
2022/03/25 03:13:10;;;;;;;73.50;47.50;;;;;;;1.57;97.04;102853.16;5010613;28;20407;-42
2022/03/25 03:15:36;;;;;;;73.85;46.90;;;;;;;1.53;96.88;102847.72;5011569;28;20262;-44
2022/03/25 03:18:02;;;;;;;66.68;44.72;;;;;;;1.57;97.54;102863.72;5011208;28;20271;-44
2022/03/25 03:20:28;;;;;;;63.88;43.63;;;;;;;1.58;97.17;102852.31;5011832;28;20615;-43
2022/03/25 03:22:56;;;;;;;71.13;45.25;;;;;;;1.54;96.89;102858.34;5010920;28;20231;-43
2022/03/25 03:25:22;;;;;;;74.47;46.30;;;;;;;1.54;96.72;102842.50;5011026;28;20191;-43
2022/03/25 03:27:49;;;;;;;72.25;46.03;;;;;;;1.41;96.94;102857.06;5010077;28;20184;-44
2022/03/25 03:30:14;;;;;;;71.15;45.28;;;;;;;1.43;97.13;102857.13;5011030;28;20181;-42
2022/03/25 03:32:40;;;;;;;72.82;44.97;;;;;;;1.35;96.62;102863.91;5010797;28;20608;-42
2022/03/25 03:35:07;;;;;;;71.55;45.38;;;;;;;1.35;97.18;102861.25;5009528;28;20686;-43
2022/03/25 03:37:39;;;;;;;68.38;43.05;;;;;;;1.40;97.54;102859.66;5011127;28;20268;-42
2022/03/25 03:40:05;;;;;;;76.28;46.92;;;;;;;1.22;97.10;102855.59;5010838;28;20518;-42
2022/03/25 03:42:30;;;;;;;74.72;48.33;;;;;;;1.15;98.30;102856.22;5010481;28;20562;-41
2022/03/25 03:44:56;;;;;;;79.18;48.42;;;;;;;1.20;98.83;102840.53;5010935;28;20185;-45
2022/03/25 03:47:21;;;;;;;83.82;49.53;;;;;;;1.19;99.12;102851.94;5010536;28;20510;-42
2022/03/25 03:49:46;;;;;;;72.45;46.15;;;;;;;1.22;98.82;102863.50;5009584;28;20280;-44
2022/03/25 03:52:12;;;;;;;73.82;46.67;;;;;;;1.16;99.23;102855.38;5010749;28;20183;-43
2022/03/25 03:54:38;;;;;;;75.63;46.47;;;;;;;1.25;99.48;102857.44;5010023;28;20581;-44
2022/03/25 03:57:04;;;;;;;73.22;47.03;;;;;;;1.21;98.87;102853.78;5010657;28;20185;-43
2022/03/25 03:59:29;;;;;;;75.88;45.40;;;;;;;1.28;99.37;102856.63;5010302;28;20276;-43
2022/03/25 04:01:55;;;;;;;69.95;45.05;;;;;;;1.27;99.32;102854.81;5010775;28;20722;-43
2022/03/25 04:04:20;;;;;;;74.22;46.95;;;;;;;1.22;98.76;102860.88;5017192;28;20615;-44
2022/03/25 04:06:45;;;;;;;77.18;48.08;;;;;;;1.23;99.18;102856.47;5030208;28;20471;-42
2022/03/25 04:09:11;;;;;;;74.55;47.10;;;;;;;1.20;99.03;102849.38;5030354;28;20194;-44
2022/03/25 04:11:36;;;;;;;66.40;44.35;;;;;;;1.32;98.76;102861.16;5029977;28;20180;-41
2022/03/25 04:14:02;;;;;;;81.90;47.15;;;;;;;1.24;98.25;102861.78;5029831;28;20241;-42
2022/03/25 04:16:30;;;;;;;73.63;45.60;;;;;;;1.22;98.58;102852.94;5024158;28;20180;-44
2022/03/25 04:18:56;;;;;;;73.15;46.78;;;;;;;1.15;98.55;102856.22;5029211;28;20188;-41
2022/03/25 04:21:22;;;;;;;73.85;46.08;;;;;;;1.15;98.87;102861.50;5029534;28;20176;-43
2022/03/25 04:23:47;;;;;;;66.30;43.42;;;;;;;1.18;98.55;102866.91;5027938;28;20183;-44
2022/03/25 04:26:13;;;;;;;68.30;43.70;;;;;;;1.17;98.53;102864.19;5029344;28;20243;-44
2022/03/25 04:28:38;;;;;;;69.72;45.80;;;;;;;1.15;98.19;102850.94;5030161;28;20172;-45
2022/03/25 04:31:04;;;;;;;68.70;43.53;;;;;;;1.22;98.31;102858.22;5029814;28;20174;-42
2022/03/25 04:33:31;;;;;;;69.93;45.22;;;;;;;1.12;98.57;102860.50;5029979;28;20175;-46
2022/03/25 04:35:57;;;;;;;63.50;41.88;;;;;;;1.17;98.39;102867.72;5029537;28;20203;-43
2022/03/25 04:38:22;;;;;;;71.05;45.60;;;;;;;1.10;97.77;102857.81;5030148;28;20178;-44
2022/03/25 04:40:48;;;;;;;72.95;44.75;;;;;;;0.98;98.05;102870.59;5030016;28;20238;-46
2022/03/25 04:43:13;;;;;;;69.22;43.85;;;;;;;1.06;98.70;102863.84;5029414;28;20282;-43
2022/03/25 04:45:39;;;;;;;69.45;43.53;;;;;;;1.02;98.69;102864.56;5030015;28;20188;-44
2022/03/25 04:48:05;;;;;;;78.97;45.00;;;;;;;1.00;98.83;102871.53;5029700;28;20233;-44
2022/03/25 04:50:30;;;;;;;73.18;45.92;;;;;;;0.89;99.25;102867.63;5028830;28;20172;-46
2022/03/25 04:52:56;;;;;;;68.10;45.40;;;;;;;1.00;99.62;102864.50;5029309;28;20278;-43
2022/03/25 04:55:21;;;;;;;76.32;46.60;;;;;;;0.92;99.42;102868.66;5029835;28;20202;-42
2022/03/25 04:57:48;;;;;;;69.10;45.42;;;;;;;0.85;99.42;102876.28;5029929;28;20168;-45
2022/03/25 05:00:15;;;;;;;67.93;41.17;;;;;;;0.97;99.86;102872.34;5028327;28;20183;-44
2022/03/25 05:02:41;;;;;;;65.50;42.88;;;;;;;1.05;99.87;102876.97;5029420;28;20723;-45
2022/03/25 05:05:07;;;;;;;74.10;45.03;;;;;;;0.96;99.72;102873.19;5015477;28;20540;-44
2022/03/25 05:07:33;;;;;;;78.28;46.65;;;;;;;1.03;99.56;102887.50;5009873;28;20219;-43
2022/03/25 05:10:02;;;;;;;71.45;44.63;;;;;;;1.07;100.00;102886.72;5010115;28;20185;-42
2022/03/25 05:12:29;;;;;;;73.00;45.15;;;;;;;1.01;99.52;102881.28;5008916;28;20213;-43
2022/03/25 05:14:55;;;;;;;73.70;44.80;;;;;;;1.03;99.77;102883.09;5009610;28;20299;-46
2022/03/25 05:17:20;;;;;;;73.13;43.78;;;;;;;1.06;100.00;102884.06;5012757;28;20597;-43
2022/03/25 05:19:46;;;;;;;67.22;43.55;;;;;;;1.05;100.00;102891.09;5012457;28;20189;-44
2022/03/25 05:22:11;;;;;;;71.53;44.38;;;;;;;0.99;99.50;102890.88;5013217;28;20184;-45
2022/03/25 05:24:37;;;;;;;69.57;45.30;;;;;;;1.04;99.48;102889.28;5012468;28;20292;-46
2022/03/25 05:27:03;;;;;;;73.50;44.88;;;;;;;1.10;100.00;102899.16;5013281;28;20216;-47
2022/03/25 05:29:28;;;;;;;74.65;44.78;;;;;;;1.08;99.29;102892.94;5012777;28;20255;-46
2022/03/25 05:31:54;;;;;;;70.57;45.47;;;;;;;0.78;99.69;102877.81;5012767;28;20177;-44
2022/03/25 05:34:20;;;;;;;71.90;43.85;;;;;;;0.85;100.00;102878.94;5012572;28;20276;-44
2022/03/25 05:36:45;;;;;;;70.55;45.58;;;;;;;1.03;100.00;102887.50;5012734;28;20624;-43
2022/03/25 05:39:11;;;;;;;79.32;47.05;;;;;;;1.05;100.00;102890.16;5012925;28;20523;-41
2022/03/25 05:41:38;;;;;;;75.18;44.15;;;;;;;1.16;100.00;102895.00;5012654;28;20196;-44
2022/03/25 05:44:03;;;;;;;74.00;46.80;;;;;;;1.13;100.00;102901.91;5012122;28;20675;-45
2022/03/25 05:46:29;;;;;;;79.57;48.00;;;;;;;1.21;100.00;102893.38;5012638;28;20168;-43
2022/03/25 05:48:55;;;;;;;73.28;44.55;;;;;;;1.34;100.00;102904.38;5011198;28;20264;-46
2022/03/25 05:51:21;;;;;;;73.18;45.35;;;;;;;1.43;100.00;102899.38;5012877;28;20168;-44
2022/03/25 05:53:46;;;;;;;71.28;43.70;;;;;;;1.49;100.00;102898.66;5012175;28;20558;-43
2022/03/25 05:56:12;;;;;;;67.40;44.40;;;;;;;1.61;100.00;102904.38;5012273;28;20196;-44
2022/03/25 05:58:39;;;;;;;70.45;44.78;;;;;;;1.64;99.92;102910.66;5012213;28;20192;-42
2022/03/25 06:01:06;;;;;;;73.38;44.45;;;;;;;1.81;99.91;102912.91;5011060;28;20177;-43
2022/03/25 06:03:32;;;;;;;73.57;44.47;;;;;;;1.94;99.71;102911.56;5012576;28;20180;-43
2022/03/25 06:06:03;;;;;;;74.32;46.17;;;;;;;2.03;99.37;102914.47;5032302;28;20241;-44
2022/03/25 06:08:30;;;;;;;65.28;43.05;;;;;;;2.19;98.88;102915.88;5032321;28;20540;-43
2022/03/25 06:10:56;;;;;;;69.32;44.42;;;;;;;2.39;98.58;102916.44;5030985;28;20187;-49
2022/03/25 06:13:22;;;;;;;68.10;42.60;;;;;;;2.59;98.33;102914.38;5031297;28;20259;-45
2022/03/25 06:15:48;;;;;;;70.70;47.70;;;;;;;2.73;97.56;102914.75;5032345;28;20357;-43
2022/03/25 06:18:14;;;;;;;68.22;44.45;;;;;;;2.84;97.49;102916.84;5032263;28;20183;-43
2022/03/25 06:20:39;;;;;;;69.88;44.80;;;;;;;3.10;96.83;102924.56;5031025;28;20191;-44
2022/03/25 06:23:05;;;;;;;66.38;43.63;;;;;;;3.05;95.71;102931.50;5030675;28;20172;-43
2022/03/25 06:25:30;;;;;;;66.78;44.47;;;;;;;3.29;95.57;102929.50;5031489;28;20199;-45
2022/03/25 06:27:58;;;;;;;69.10;44.15;;;;;;;3.50;94.74;102922.97;5031759;28;20259;-44
2022/03/25 06:30:27;;;;;;;65.55;43.70;;;;;;;3.69;94.56;102913.69;5031958;28;20198;-47
2022/03/25 06:32:53;;;;;;;64.65;43.78;;;;;;;3.99;93.86;102923.22;5031474;28;20257;-46
2022/03/25 06:35:19;;;;;;;64.80;42.40;;;;;;;4.19;93.29;102915.72;5031764;28;20211;-43
2022/03/25 06:37:45;;;;;;;66.07;43.75;;;;;;;4.25;92.42;102930.00;5031711;28;20242;-43
2022/03/25 06:40:11;;;;;;;61.55;43.15;;;;;;;4.44;91.83;102923.34;5031056;28;20171;-46
2022/03/25 06:42:42;;;;;;;61.85;41.63;;;;;;;4.56;91.49;102927.09;5031935;28;20180;-44
2022/03/25 06:45:10;;;;;;;64.97;42.80;;;;;;;4.85;90.38;102920.59;5031976;28;20203;-44
2022/03/25 06:47:35;;;;;;;64.25;43.10;;;;;;;5.06;89.80;102913.91;5032507;28;20626;-42
2022/03/25 06:50:02;;;;;;;63.05;43.10;;;;;;;5.39;89.14;102918.91;5032207;28;20184;-42
2022/03/25 06:52:28;;;;;;;63.20;43.08;;;;;;;5.48;88.12;102912.84;5032001;28;20722;-45
2022/03/25 06:54:54;;;;;;;65.03;43.53;;;;;;;5.47;88.45;102916.41;5031458;28;20271;-41
2022/03/25 06:57:19;;;;;;;60.47;43.10;;;;;;;5.56;89.15;102921.84;5031776;28;20184;-41
2022/03/25 06:59:45;;;;;;;63.08;43.30;;;;;;;5.71;89.29;102926.53;5032182;28;20269;-41
2022/03/25 07:02:12;;;;;;;65.00;45.17;;;;;;;6.13;90.08;102933.38;5031853;28;20180;-41
2022/03/25 07:04:38;;;;;;;59.90;38.65;;;;;;;6.25;87.30;102930.88;5032214;28;20192;-42
2022/03/25 07:07:06;;;;;;;51.60;36.22;;;;;;;6.68;84.42;102920.78;5051153;28;20168;-43
2022/03/25 07:09:32;;;;;;;51.25;34.88;;;;;;;6.76;79.87;102924.44;5046734;28;20214;-41
2022/03/25 07:11:59;;;;;;;52.63;33.20;;;;;;;7.04;76.16;102929.16;5051001;28;20175;-43
2022/03/25 07:14:25;;;;;;;45.17;32.63;;;;;;;7.38;74.20;102912.59;5051097;28;20184;-43
2022/03/25 07:16:50;;;;;;;44.72;31.33;;;;;;;7.70;72.59;102917.31;5051280;28;20634;-42
2022/03/25 07:19:16;;;;;;;47.40;32.33;;;;;;;7.92;70.47;102918.34;5050908;28;20258;-42
2022/03/25 07:21:41;;;;;;;45.50;32.67;;;;;;;7.52;68.33;102917.13;5050942;28;20645;-41
2022/03/25 07:24:06;;;;;;;45.97;33.10;;;;;;;7.81;66.79;102912.94;5051223;28;20243;-43
2022/03/25 07:26:32;;;;;;;45.80;31.25;;;;;;;8.17;66.55;102916.69;5049206;28;20262;-43
2022/03/25 07:28:58;;;;;;;45.65;30.23;;;;;;;8.16;64.23;102909.56;5050838;28;20167;-43
2022/03/25 07:31:28;;;;;;;41.42;28.05;;;;;;;8.07;62.26;102913.97;5050427;28;20255;-45
2022/03/25 07:33:57;;;;;;;40.10;27.70;;;;;;;8.56;61.71;102915.13;5050174;28;20599;-45
2022/03/25 07:36:22;;;;;;;42.65;29.40;;;;;;;8.50;63.77;102919.56;5050497;28;20390;-44
2022/03/25 07:38:47;;;;;;;38.50;27.50;;;;;;;8.99;61.53;102917.94;5049895;28;20175;-42
2022/03/25 07:41:13;;;;;;;42.00;27.55;;;;;;;8.76;58.83;102925.88;5050712;28;20171;-42
2022/03/25 07:43:39;;;;;;;38.97;27.83;;;;;;;9.23;58.83;102919.75;5050192;28;20269;-43
2022/03/25 07:46:05;;;;;;;44.45;29.13;;;;;;;9.12;57.86;102918.84;5028642;28;20180;-42
2022/03/25 07:48:31;;;;;;;36.25;25.33;;;;;;;9.44;56.62;102908.13;5029868;28;20176;-41
2022/03/25 07:50:56;;;;;;;35.85;24.85;;;;;;;9.54;56.08;102916.19;5030118;28;20250;-44
2022/03/25 07:53:22;;;;;;;31.23;21.52;;;;;;;9.63;53.17;102914.38;5030017;28;20234;-44
2022/03/25 07:55:50;;;;;;;32.58;21.77;;;;;;;9.88;52.39;102914.34;5029929;28;20689;-42
2022/03/25 07:58:20;;;;;;;32.35;20.77;;;;;;;10.03;50.32;102917.00;5030356;28;20175;-43
2022/03/25 08:00:49;;;;;;;30.20;20.20;;;;;;;9.78;48.41;102920.63;5029815;28;20199;-44
2022/03/25 08:03:16;;;;;;;30.73;20.55;;;;;;;10.12;46.93;102921.44;5028590;28;20171;-44
2022/03/25 08:05:42;;;;;;;29.02;19.88;;;;;;;10.43;46.92;102933.00;5030071;28;20194;-44
2022/03/25 08:08:08;;;;;;;30.15;19.25;;;;;;;10.36;46.80;102927.66;5029957;28;20171;-44
2022/03/25 08:10:34;;;;;;;28.63;20.30;;;;;;;10.64;46.76;102921.28;5030215;28;20623;-42
2022/03/25 08:13:00;;;;;;;32.78;20.60;;;;;;;10.41;46.19;102921.38;5029715;28;20199;-44
2022/03/25 08:15:27;;;;;;;29.17;20.73;;;;;;;10.52;44.85;102929.38;5030202;28;20674;-43
2022/03/25 08:17:57;;;;;;;26.98;19.42;;;;;;;10.69;46.30;102929.28;5029108;28;20180;-42
2022/03/25 08:20:29;;;;;;;30.13;19.35;;;;;;;11.06;47.38;102927.31;5027861;28;20179;-42
2022/03/25 08:22:57;;;;;;;31.27;18.40;;;;;;;11.19;45.23;102922.72;5029760;28;20530;-42
2022/03/25 08:28:07;;;;;;;29.10;20.00;;;;;;;11.46;45.39;102924.31;5030165;28;20182;-41
2022/03/25 08:30:33;;;;;;;28.98;19.75;;;;;;;11.56;44.28;102927.81;5029817;28;20175;-42
2022/03/25 08:33:00;;;;;;;26.05;17.95;;;;;;;11.95;44.58;102928.38;5029978;28;20168;-43
2022/03/25 08:35:26;;;;;;;27.40;18.58;;;;;;;11.68;43.20;102925.03;5029048;28;20245;-44
2022/03/25 08:37:53;;;;;;;24.45;17.08;;;;;;;11.60;44.69;102923.31;5030253;28;20587;-43
2022/03/25 08:40:20;;;;;;;24.10;16.95;;;;;;;11.96;43.34;102922.09;5030164;28;20661;-44
2022/03/25 08:42:45;;;;;;;27.25;16.40;;;;;;;12.11;44.46;102924.63;5029477;28;20563;-44
2022/03/25 08:45:13;;;;;;;25.30;16.95;;;;;;;12.07;44.54;102924.66;5029702;28;20188;-44
2022/03/25 08:47:39;;;;;;;29.42;18.00;;;;;;;12.15;45.44;102936.22;5029512;28;20670;-44
2022/03/25 08:50:05;;;;;;;35.28;16.80;;;;;;;12.54;44.37;102933.97;5031020;28;20170;-42
2022/03/25 08:52:30;;;;;;;27.52;17.40;;;;;;;12.47;44.77;102932.28;5033223;28;20937;-41
2022/03/25 08:54:56;;;;;;;26.65;17.67;;;;;;;12.68;44.35;102932.00;5034132;28;20216;-48
2022/03/25 08:57:21;;;;;;;22.90;16.15;;;;;;;12.91;43.33;102930.78;5032912;28;20631;-49
2022/03/25 08:59:48;;;;;;;21.95;16.15;;;;;;;12.97;44.20;102933.41;5033684;28;20168;-47
2022/03/25 09:02:14;;;;;;;21.95;14.85;;;;;;;13.11;42.79;102933.19;5016831;28;20219;-41
2022/03/25 09:04:39;;;;;;;20.00;14.10;;;;;;;13.22;42.60;102927.63;5023512;28;20670;-40
2022/03/25 09:07:05;;;;;;;18.23;13.45;;;;;;;12.99;42.31;102937.84;5013487;28;20157;-43
2022/03/25 09:09:31;;;;;;;21.80;13.55;;;;;;;13.15;42.84;102935.78;5013591;28;20172;-41
2022/03/25 09:11:56;;;;;;;20.63;13.18;;;;;;;13.34;41.67;102932.88;5013422;28;20181;-40
2022/03/25 09:14:22;;;;;;;20.88;12.13;;;;;;;13.49;41.80;102932.63;5012999;28;20223;-40
2022/03/25 09:16:47;;;;;;;27.67;13.48;;;;;;;13.56;41.24;102947.75;5013881;28;20242;-42
2022/03/25 09:19:13;;;;;;;20.77;13.25;;;;;;;13.55;40.94;102943.25;5013467;28;20177;-42
2022/03/25 09:21:38;;;;;;;20.83;12.57;;;;;;;13.54;41.51;102951.38;5013434;28;20172;-40
2022/03/25 09:24:04;;;;;;;19.20;12.43;;;;;;;13.96;41.27;102946.16;5013104;28;20203;-44
2022/03/25 09:26:30;;;;;;;20.23;12.13;;;;;;;13.97;41.68;102956.91;5013784;28;20187;-43
2022/03/25 09:28:56;;;;;;;19.40;12.32;;;;;;;13.73;40.93;102947.47;5013517;28;20168;-41
2022/03/25 09:31:22;;;;;;;24.15;12.55;;;;;;;13.99;40.80;102947.00;5012954;28;20272;-42
2022/03/25 09:33:47;;;;;;;22.02;12.68;;;;;;;13.97;40.52;102932.66;5012674;28;20596;-41
2022/03/25 09:36:14;;;;;;;21.10;13.48;;;;;;;13.67;41.83;102930.53;5012677;28;20199;-43
2022/03/25 09:38:40;;;;;;;25.58;14.07;;;;;;;14.12;41.60;102938.66;5013103;28;20626;-42
2022/03/25 09:41:07;;;;;;;22.73;13.30;;;;;;;14.06;41.61;102938.78;5013525;28;20259;-41
2022/03/25 09:43:34;;;;;;;28.30;14.52;;;;;;;13.98;42.24;102931.72;5012686;28;20280;-42
2022/03/25 09:46:00;;;;;;;19.83;13.45;;;;;;;14.37;41.43;102948.06;5032604;28;20200;-43
2022/03/25 09:48:25;;;;;;;21.25;13.23;;;;;;;14.42;41.42;102943.44;5032653;28;20160;-42
2022/03/25 09:50:51;;;;;;;25.65;14.68;;;;;;;14.17;41.64;102936.78;5032704;28;20269;-45
2022/03/25 09:53:16;;;;;;;22.40;14.95;;;;;;;14.13;42.49;102946.72;5032126;28;20160;-40
2022/03/25 09:55:46;;;;;;;20.65;14.15;;;;;;;14.45;43.70;102938.91;5032148;28;20303;-40
2022/03/25 09:58:18;;;;;;;25.88;15.05;;;;;;;14.50;43.27;102943.31;5031969;28;20180;-41
2022/03/25 10:00:48;;;;;;;22.58;14.40;;;;;;;14.40;42.36;102945.28;5037438;28;20276;-40
2022/03/25 10:03:13;;;;;;;19.25;13.80;;;;;;;14.69;42.53;102941.13;5051190;28;20175;-41
2022/03/25 10:05:53;;;;;;;25.65;14.88;;;;;;;14.77;43.17;102943.66;5036205;28;20187;-41
2022/03/25 10:08:29;;;;;;;21.48;14.77;;;;;;;14.66;43.51;102951.97;5052180;28;20186;-41
2022/03/25 10:10:54;;;;;;;25.38;15.15;;;;;;;14.83;43.41;102944.41;5051572;28;20644;-40
2022/03/25 10:13:19;;;;;;;26.67;13.43;;;;;;;14.52;44.10;102949.56;5052380;28;20263;-41
2022/03/25 10:15:45;;;;;;;25.40;15.20;;;;;;;14.58;43.96;102951.25;5040496;28;20620;-41
2022/03/25 10:18:11;;;;;;;24.48;15.27;;;;;;;14.95;44.25;102948.63;5023112;28;20819;-41
2022/03/25 10:20:41;;;;;;;23.45;14.85;;;;;;;14.81;44.25;102957.03;5032131;28;20180;-41
2022/03/25 10:23:20;;;;;;;26.30;15.35;;;;;;;14.81;44.38;102943.56;5031371;28;20168;-43
2022/03/25 10:25:55;;;;;;;26.42;15.23;;;;;;;14.78;44.61;102950.81;5029408;28;20207;-41
2022/03/25 10:28:28;;;;;;;25.75;15.40;;;;;;;15.15;44.09;102945.50;5030435;28;20167;-41
2022/03/25 10:31:00;;;;;;;25.83;15.43;;;;;;;15.49;43.27;102941.09;5032093;28;20182;-42
2022/03/25 10:33:36;;;;;;;24.33;15.82;;;;;;;15.58;42.65;102944.44;5031776;28;20172;-42
2022/03/25 10:36:07;;;;;;;28.02;16.27;;;;;;;15.44;44.01;102950.19;5031630;28;20621;-43
2022/03/25 10:38:58;;;;;;;30.77;15.90;;;;;;;14.80;43.43;102955.28;5031957;28;20199;-42
2022/03/25 10:41:25;;;;;;;25.48;15.77;;;;;;;15.48;43.84;102948.31;5031716;28;20207;-42
2022/03/25 10:43:55;;;;;;;27.75;16.52;;;;;;;15.43;44.72;102952.91;5031285;28;20156;-43
2022/03/25 10:46:40;;;;;;;26.13;17.00;;;;;;;15.53;44.89;102949.06;5031613;28;20269;-42
2022/03/25 10:49:10;;;;;;;31.80;17.30;;;;;;;14.87;47.05;102952.44;5031686;28;20175;-42
2022/03/25 10:51:39;;;;;;;28.50;18.45;;;;;;;14.08;51.33;102953.13;5031249;28;20184;-42
2022/03/25 10:54:07;;;;;;;27.55;19.23;;;;;;;14.35;51.15;102944.50;5031706;28;20223;-42
2022/03/25 10:56:54;;;;;;;28.73;19.98;;;;;;;14.49;49.60;102936.09;5031304;28;20579;-41
2022/03/25 10:59:30;;;;;;;31.40;21.27;;;;;;;14.67;48.34;102943.00;5031260;28;20172;-42
2022/03/25 11:01:58;;;;;;;31.25;20.95;;;;;;;14.79;46.96;102939.13;5031437;28;20179;-42
2022/03/25 11:04:25;;;;;;;35.70;22.10;;;;;;;14.73;48.55;102940.13;5023211;28;20208;-43
2022/03/25 11:06:50;;;;;;;28.55;20.63;;;;;;;15.30;47.34;102929.84;5010592;28;20547;-43
2022/03/25 11:09:17;;;;;;;31.60;21.52;;;;;;;14.96;47.18;102945.03;5011663;28;20184;-42
2022/03/25 11:11:48;;;;;;;30.73;20.73;;;;;;;14.91;46.97;102935.25;5011710;28;20199;-42
2022/03/25 11:14:15;;;;;;;30.83;19.58;;;;;;;15.37;47.02;102932.38;5010435;28;20192;-43